sensor_id;sensor_type;location;lat;lon;timestamp;pressure;altitude;pressure_sealevel;temperature;humidity
7180;BME280;3631;42.152;24.756;2023-05-25T00:00:29;85306.97;;;-144.30;83.34
7180;BME280;3631;42.152;24.756;2023-05-25T00:02:56;85297.03;;;-144.30;83.66
7180;BME280;3631;42.152;24.756;2023-05-25T00:05:23;85291.06;;;-144.30;83.65
7180;BME280;3631;42.152;24.756;2023-05-25T00:07:52;85297.03;;;-144.30;83.80
7180;BME280;3631;42.152;24.756;2023-05-25T00:10:19;85305.00;;;-144.30;83.91
7180;BME280;3631;42.152;24.756;2023-05-25T00:12:46;85267.22;;;-144.30;84.07
7180;BME280;3631;42.152;24.756;2023-05-25T00:15:14;85308.97;;;-144.30;84.38
7180;BME280;3631;42.152;24.756;2023-05-25T00:17:41;85281.13;;;-144.30;84.79
7180;BME280;3631;42.152;24.756;2023-05-25T00:20:09;85322.88;;;-144.30;85.66
7180;BME280;3631;42.152;24.756;2023-05-25T00:22:38;85314.94;;;-144.30;86.46
7180;BME280;3631;42.152;24.756;2023-05-25T00:25:09;85621.06;;;-144.30;87.02
7180;BME280;3631;42.152;24.756;2023-05-25T00:27:36;85330.84;;;-144.30;87.31
7180;BME280;3631;42.152;24.756;2023-05-25T00:30:04;85279.16;;;-144.30;87.98
7180;BME280;3631;42.152;24.756;2023-05-25T00:32:32;85295.06;;;-144.30;88.34
7180;BME280;3631;42.152;24.756;2023-05-25T00:34:59;85356.69;;;-144.30;89.29
7180;BME280;3631;42.152;24.756;2023-05-25T00:37:26;85754.28;;;-144.30;89.62
7180;BME280;3631;42.152;24.756;2023-05-25T00:39:53;85328.84;;;-144.30;89.54
7180;BME280;3631;42.152;24.756;2023-05-25T00:42:21;85344.75;;;-144.30;89.68
7180;BME280;3631;42.152;24.756;2023-05-25T00:44:49;85356.69;;;-144.30;89.71
7180;BME280;3631;42.152;24.756;2023-05-25T00:47:16;85326.84;;;-144.30;90.27
7180;BME280;3631;42.152;24.756;2023-05-25T00:49:44;85352.69;;;-144.30;90.75
7180;BME280;3631;42.152;24.756;2023-05-25T00:52:12;85348.72;;;-144.30;90.90
7180;BME280;3631;42.152;24.756;2023-05-25T00:54:39;85374.56;;;-144.30;90.74
7180;BME280;3631;42.152;24.756;2023-05-25T00:57:06;85336.78;;;-144.30;90.79
7180;BME280;3631;42.152;24.756;2023-05-25T00:59:37;85340.78;;;-144.30;91.16
7180;BME280;3631;42.152;24.756;2023-05-25T01:02:07;85338.78;;;-144.30;91.38
7180;BME280;3631;42.152;24.756;2023-05-25T01:04:35;85360.66;;;-144.30;91.90
7180;BME280;3631;42.152;24.756;2023-05-25T01:07:07;85408.34;;;-144.30;92.33
7180;BME280;3631;42.152;24.756;2023-05-25T01:09:37;85400.41;;;-144.30;92.79
7180;BME280;3631;42.152;24.756;2023-05-25T01:12:06;85392.47;;;-144.30;92.79
7180;BME280;3631;42.152;24.756;2023-05-25T01:14:33;85344.75;;;-144.30;92.62
7180;BME280;3631;42.152;24.756;2023-05-25T01:17:01;85344.75;;;-144.30;92.23
7180;BME280;3631;42.152;24.756;2023-05-25T01:19:28;85342.75;;;-144.30;92.28
7180;BME280;3631;42.152;24.756;2023-05-25T01:22:03;85380.53;;;-144.30;91.77
7180;BME280;3631;42.152;24.756;2023-05-25T01:24:33;85348.72;;;-144.30;91.91
7180;BME280;3631;42.152;24.756;2023-05-25T01:27:08;85420.28;;;-144.30;92.18
7180;BME280;3631;42.152;24.756;2023-05-25T01:29:41;85400.41;;;-144.30;91.85
7180;BME280;3631;42.152;24.756;2023-05-25T01:32:10;85402.41;;;-144.30;92.52
7180;BME280;3631;42.152;24.756;2023-05-25T01:34:39;85426.25;;;-144.30;92.91
7180;BME280;3631;42.152;24.756;2023-05-25T01:37:08;85448.13;;;-144.30;93.01
7180;BME280;3631;42.152;24.756;2023-05-25T01:39:37;85430.22;;;-144.30;93.16
7180;BME280;3631;42.152;24.756;2023-05-25T01:42:04;85364.63;;;-144.30;93.20
7180;BME280;3631;42.152;24.756;2023-05-25T01:44:31;85448.13;;;-144.30;93.28
7180;BME280;3631;42.152;24.756;2023-05-25T01:47:03;85420.28;;;-144.30;93.75
7180;BME280;3631;42.152;24.756;2023-05-25T01:49:36;85444.16;;;-144.30;93.92
7180;BME280;3631;42.152;24.756;2023-05-25T01:52:14;85398.41;;;-144.30;94.26
7180;BME280;3631;42.152;24.756;2023-05-25T01:54:46;85450.09;;;-144.30;94.33
7180;BME280;3631;42.152;24.756;2023-05-25T01:57:17;85468.00;;;-144.30;94.07
7180;BME280;3631;42.152;24.756;2023-05-25T01:59:46;85416.31;;;-144.30;94.06
7180;BME280;3631;42.152;24.756;2023-05-25T02:02:14;85432.22;;;-144.30;94.48
7180;BME280;3631;42.152;24.756;2023-05-25T02:04:43;85448.13;;;-144.30;94.66
7180;BME280;3631;42.152;24.756;2023-05-25T02:07:11;85468.00;;;-144.30;94.48
7180;BME280;3631;42.152;24.756;2023-05-25T02:09:38;85458.06;;;-144.30;94.41
7180;BME280;3631;42.152;24.756;2023-05-25T02:12:06;85479.94;;;-144.30;94.40
7180;BME280;3631;42.152;24.756;2023-05-25T02:14:33;85462.03;;;-144.30;94.11
7180;BME280;3631;42.152;24.756;2023-05-25T02:17:00;85446.13;;;-144.30;93.70
7180;BME280;3631;42.152;24.756;2023-05-25T02:19:28;85460.03;;;-144.30;93.60
7180;BME280;3631;42.152;24.756;2023-05-25T02:21:55;85416.31;;;-144.30;93.76
7180;BME280;3631;42.152;24.756;2023-05-25T02:24:23;85462.03;;;-144.30;93.70
7180;BME280;3631;42.152;24.756;2023-05-25T02:26:51;85487.88;;;-144.30;93.61
7180;BME280;3631;42.152;24.756;2023-05-25T02:29:17;85442.16;;;-144.30;92.87
7180;BME280;3631;42.152;24.756;2023-05-25T02:31:44;85446.13;;;-144.30;92.76
7180;BME280;3631;42.152;24.756;2023-05-25T02:34:11;85444.16;;;-144.30;92.81
7180;BME280;3631;42.152;24.756;2023-05-25T02:36:39;85464.03;;;-144.30;92.59
7180;BME280;3631;42.152;24.756;2023-05-25T02:39:08;85464.03;;;-144.30;92.92
7180;BME280;3631;42.152;24.756;2023-05-25T02:41:36;85475.94;;;-144.30;92.99
7180;BME280;3631;42.152;24.756;2023-05-25T02:44:04;85507.75;;;-144.30;93.16
7180;BME280;3631;42.152;24.756;2023-05-25T02:46:31;85499.81;;;-144.30;93.42
7180;BME280;3631;42.152;24.756;2023-05-25T02:48:59;85487.88;;;-144.30;93.78
7180;BME280;3631;42.152;24.756;2023-05-25T02:51:26;85483.91;;;-144.30;93.39
7180;BME280;3631;42.152;24.756;2023-05-25T02:53:53;85517.69;;;-144.30;93.40
7180;BME280;3631;42.152;24.756;2023-05-25T02:56:20;85497.81;;;-144.30;93.76
7180;BME280;3631;42.152;24.756;2023-05-25T02:58:48;85503.78;;;-144.30;94.12
7180;BME280;3631;42.152;24.756;2023-05-25T03:01:15;85509.75;;;-144.30;93.80
7180;BME280;3631;42.152;24.756;2023-05-25T03:03:43;85503.78;;;-144.30;93.77
7180;BME280;3631;42.152;24.756;2023-05-25T03:06:11;85501.78;;;-144.30;93.60
7180;BME280;3631;42.152;24.756;2023-05-25T03:08:38;85515.72;;;-144.30;93.28
7180;BME280;3631;42.152;24.756;2023-05-25T03:11:05;85507.75;;;-144.30;93.00
7180;BME280;3631;42.152;24.756;2023-05-25T03:13:32;85473.97;;;-144.30;93.01
7180;BME280;3631;42.152;24.756;2023-05-25T03:16:01;85468.00;;;-144.30;92.21
7180;BME280;3631;42.152;24.756;2023-05-25T03:18:28;85440.16;;;-144.30;91.74
7180;BME280;3631;42.152;24.756;2023-05-25T03:20:54;85432.22;;;-144.30;91.48
7180;BME280;3631;42.152;24.756;2023-05-25T03:23:21;85452.09;;;-144.30;91.74
7180;BME280;3631;42.152;24.756;2023-05-25T03:25:49;85475.94;;;-144.30;91.03
7180;BME280;3631;42.152;24.756;2023-05-25T03:28:15;85442.16;;;-144.30;90.24
7180;BME280;3631;42.152;24.756;2023-05-25T03:30:42;85380.53;;;-144.30;89.83
7180;BME280;3631;42.152;24.756;2023-05-25T03:33:11;85400.41;;;-144.30;89.09
7180;BME280;3631;42.152;24.756;2023-05-25T03:35:40;85448.13;;;-144.30;88.30
7180;BME280;3631;42.152;24.756;2023-05-25T03:38:07;85384.50;;;-144.30;88.11
7180;BME280;3631;42.152;24.756;2023-05-25T03:40:34;85372.56;;;-144.30;87.08
7180;BME280;3631;42.152;24.756;2023-05-25T03:43:01;85362.63;;;-144.30;86.71
7180;BME280;3631;42.152;24.756;2023-05-25T03:45:27;85402.41;;;-144.30;86.20
7180;BME280;3631;42.152;24.756;2023-05-25T03:47:55;85299.03;;;-144.30;85.69
7180;BME280;3631;42.152;24.756;2023-05-25T03:50:23;85241.38;;;-144.30;83.18
7180;BME280;3631;42.152;24.756;2023-05-25T03:52:50;85169.81;;;-144.30;79.31
7180;BME280;3631;42.152;24.756;2023-05-25T03:55:17;85070.44;;;-144.30;76.25
7180;BME280;3631;42.152;24.756;2023-05-25T03:57:44;84951.16;;;-144.30;72.73
7180;BME280;3631;42.152;24.756;2023-05-25T04:00:12;84827.94;;;-144.30;69.54
7180;BME280;3631;42.152;24.756;2023-05-25T04:02:39;84758.38;;;-144.30;67.31
7180;BME280;3631;42.152;24.756;2023-05-25T04:05:06;84700.72;;;-144.30;65.69
7180;BME280;3631;42.152;24.756;2023-05-25T04:07:35;84676.88;;;-144.30;64.23
7180;BME280;3631;42.152;24.756;2023-05-25T04:10:02;84633.16;;;-144.30;63.41
7180;BME280;3631;42.152;24.756;2023-05-25T04:12:29;84597.38;;;-144.30;62.41
7180;BME280;3631;42.152;24.756;2023-05-25T04:14:56;84531.78;;;-144.30;61.05
7180;BME280;3631;42.152;24.756;2023-05-25T04:17:23;84597.38;;;-144.30;60.29
7180;BME280;3631;42.152;24.756;2023-05-25T04:19:50;84595.38;;;-144.30;61.23
7180;BME280;3631;42.152;24.756;2023-05-25T04:22:17;84593.41;;;-144.30;61.32
7180;BME280;3631;42.152;24.756;2023-05-25T04:24:46;84515.88;;;-144.30;59.95
7180;BME280;3631;42.152;24.756;2023-05-25T04:27:15;84468.19;;;-144.30;59.14
7180;BME280;3631;42.152;24.756;2023-05-25T04:29:45;84442.34;;;-144.30;58.19
7180;BME280;3631;42.152;24.756;2023-05-25T04:32:15;84410.56;;;-144.30;57.14
7180;BME280;3631;42.152;24.756;2023-05-25T04:34:43;84370.81;;;-144.30;56.84
7180;BME280;3631;42.152;24.756;2023-05-25T04:37:11;84335.03;;;-144.30;56.56
7180;BME280;3631;42.152;24.756;2023-05-25T04:39:38;84301.25;;;-144.30;55.84
7180;BME280;3631;42.152;24.756;2023-05-25T04:42:07;84140.28;;;-144.30;54.38
7180;BME280;3631;42.152;24.756;2023-05-25T04:44:34;84015.09;;;-144.30;51.88
7180;BME280;3631;42.152;24.756;2023-05-25T04:47:02;83913.75;;;-144.30;49.64
7180;BME280;3631;42.152;24.756;2023-05-25T04:49:29;83965.41;;;-144.30;49.89
7180;BME280;3631;42.152;24.756;2023-05-25T04:51:56;83891.88;;;-144.30;49.87
7180;BME280;3631;42.152;24.756;2023-05-25T04:54:22;83744.84;;;-144.30;48.44
7180;BME280;3631;42.152;24.756;2023-05-25T04:56:50;83651.47;;;-144.30;47.04
7180;BME280;3631;42.152;24.756;2023-05-25T04:59:19;83568.00;;;-144.30;45.44
7180;BME280;3631;42.152;24.756;2023-05-25T05:01:46;83490.53;;;-144.30;44.68
7180;BME280;3631;42.152;24.756;2023-05-25T05:04:13;83450.78;;;-144.30;43.73
7180;BME280;3631;42.152;24.756;2023-05-25T05:06:41;83407.06;;;-144.30;43.87
7180;BME280;3631;42.152;24.756;2023-05-25T05:09:08;83482.56;;;-144.30;43.93
7180;BME280;3631;42.152;24.756;2023-05-25T05:11:35;83524.31;;;-144.30;44.52
7180;BME280;3631;42.152;24.756;2023-05-25T05:14:02;83564.03;;;-144.30;45.36
7180;BME280;3631;42.152;24.756;2023-05-25T05:16:31;83554.09;;;-144.30;45.21
7180;BME280;3631;42.152;24.756;2023-05-25T05:18:59;83566.03;;;-144.30;45.20
7180;BME280;3631;42.152;24.756;2023-05-25T05:21:26;83583.91;;;-144.30;45.49
7180;BME280;3631;42.152;24.756;2023-05-25T05:23:54;83631.59;;;-144.30;45.86
7180;BME280;3631;42.152;24.756;2023-05-25T05:26:21;83595.81;;;-144.30;45.66
7180;BME280;3631;42.152;24.756;2023-05-25T05:28:48;83516.34;;;-144.30;45.12
7180;BME280;3631;42.152;24.756;2023-05-25T05:31:17;83542.19;;;-144.30;44.86
7180;BME280;3631;42.152;24.756;2023-05-25T05:33:45;83558.06;;;-144.30;45.03
7180;BME280;3631;42.152;24.756;2023-05-25T05:36:12;83653.44;;;-144.30;46.26
7180;BME280;3631;42.152;24.756;2023-05-25T05:38:39;83796.50;;;-144.30;47.62
7180;BME280;3631;42.152;24.756;2023-05-25T05:41:06;83800.50;;;-144.30;48.30
7180;BME280;3631;42.152;24.756;2023-05-25T05:43:38;83766.72;;;-144.30;47.90
7180;BME280;3631;42.152;24.756;2023-05-25T05:46:07;83728.97;;;-144.30;47.67
7180;BME280;3631;42.152;24.756;2023-05-25T05:48:34;83746.84;;;-144.30;47.23
7180;BME280;3631;42.152;24.756;2023-05-25T05:51:02;83631.59;;;-144.30;46.74
7180;BME280;3631;42.152;24.756;2023-05-25T05:53:29;83647.50;;;-144.30;45.86
7180;BME280;3631;42.152;24.756;2023-05-25T05:55:57;83573.97;;;-144.30;45.19
7180;BME280;3631;42.152;24.756;2023-05-25T05:58:24;83572.00;;;-144.30;45.32
7180;BME280;3631;42.152;24.756;2023-05-25T06:00:52;83377.28;;;-144.30;45.65
7180;BME280;3631;42.152;24.756;2023-05-25T06:03:19;83715.03;;;-144.30;47.20
7180;BME280;3631;42.152;24.756;2023-05-25T06:05:46;83800.50;;;-144.30;48.49
7180;BME280;3631;42.152;24.756;2023-05-25T06:08:14;83905.81;;;-144.30;49.78
7180;BME280;3631;42.152;24.756;2023-05-25T06:10:41;83872.03;;;-144.30;49.52
7180;BME280;3631;42.152;24.756;2023-05-25T06:13:08;83842.22;;;-144.30;49.57
7180;BME280;3631;42.152;24.756;2023-05-25T06:15:36;83852.16;;;-144.30;49.44
7180;BME280;3631;42.152;24.756;2023-05-25T06:18:03;83893.88;;;-144.30;49.93
7180;BME280;3631;42.152;24.756;2023-05-25T06:20:30;83977.34;;;-144.30;49.84
7180;BME280;3631;42.152;24.756;2023-05-25T06:22:56;83981.31;;;-144.30;49.77
7180;BME280;3631;42.152;24.756;2023-05-25T06:25:25;83971.38;;;-144.30;49.68
7180;BME280;3631;42.152;24.756;2023-05-25T06:27:52;83949.50;;;-144.30;49.53
7180;BME280;3631;42.152;24.756;2023-05-25T06:30:19;84211.81;;;-144.30;49.34
7180;BME280;3631;42.152;24.756;2023-05-25T06:32:46;83921.69;;;-144.30;49.04
7180;BME280;3631;42.152;24.756;2023-05-25T06:35:13;83877.97;;;-144.30;48.95
7180;BME280;3631;42.152;24.756;2023-05-25T06:37:44;83911.75;;;-144.30;49.07
7180;BME280;3631;42.152;24.756;2023-05-25T06:40:11;83881.97;;;-144.30;49.24
7180;BME280;3631;42.152;24.756;2023-05-25T06:42:40;83879.97;;;-144.30;49.39
7180;BME280;3631;42.152;24.756;2023-05-25T06:45:08;83844.19;;;-144.30;48.64
7180;BME280;3631;42.152;24.756;2023-05-25T06:47:35;83734.91;;;-144.30;47.60
7180;BME280;3631;42.152;24.756;2023-05-25T06:50:02;83651.47;;;-144.30;46.80
7180;BME280;3631;42.152;24.756;2023-05-25T06:52:29;83603.78;;;-144.30;46.50
7180;BME280;3631;42.152;24.756;2023-05-25T06:54:56;83514.38;;;-144.30;46.12
7180;BME280;3631;42.152;24.756;2023-05-25T06:57:23;83432.91;;;-144.30;44.94
7180;BME280;3631;42.152;24.756;2023-05-25T06:59:51;83266.03;;;-144.30;44.14
7180;BME280;3631;42.152;24.756;2023-05-25T07:02:18;83270.00;;;-144.30;42.76
7180;BME280;3631;42.152;24.756;2023-05-25T07:04:46;83311.72;;;-144.30;42.71
7180;BME280;3631;42.152;24.756;2023-05-25T07:07:12;83277.94;;;-144.30;42.86
7180;BME280;3631;42.152;24.756;2023-05-25T07:09:39;83275.94;;;-144.30;42.20
7180;BME280;3631;42.152;24.756;2023-05-25T07:12:06;83365.34;;;-144.30;42.25
7180;BME280;3631;42.152;24.756;2023-05-25T07:14:35;83305.75;;;-144.30;42.31
7180;BME280;3631;42.152;24.756;2023-05-25T07:17:04;83264.03;;;-144.30;41.86
7180;BME280;3631;42.152;24.756;2023-05-25T07:19:31;83262.03;;;-144.30;41.54
7180;BME280;3631;42.152;24.756;2023-05-25T07:21:58;83325.63;;;-144.30;40.62
7180;BME280;3631;42.152;24.756;2023-05-25T07:24:25;83341.50;;;-144.30;40.02
7180;BME280;3631;42.152;24.756;2023-05-25T07:26:52;83019.69;;;-144.30;39.05
7180;BME280;3631;42.152;24.756;2023-05-25T07:29:19;82821.03;;;-144.30;38.24
7180;BME280;3631;42.152;24.756;2023-05-25T07:31:45;82825.00;;;-144.30;37.74
7180;BME280;3631;42.152;24.756;2023-05-25T07:34:14;82791.22;;;-144.30;37.28
7180;BME280;3631;42.152;24.756;2023-05-25T07:36:41;82781.28;;;-144.30;36.88
7180;BME280;3631;42.152;24.756;2023-05-25T07:39:07;82817.06;;;-144.30;36.91
7180;BME280;3631;42.152;24.756;2023-05-25T07:41:35;82854.78;;;-144.30;37.30
7180;BME280;3631;42.152;24.756;2023-05-25T07:44:02;82761.44;;;-144.30;37.30
7180;BME280;3631;42.152;24.756;2023-05-25T07:46:30;82674.03;;;-144.30;36.50
7180;BME280;3631;42.152;24.756;2023-05-25T07:48:56;82689.91;;;-144.30;35.98
7180;BME280;3631;42.152;24.756;2023-05-25T07:51:28;82608.47;;;-144.30;36.48
7180;BME280;3631;42.152;24.756;2023-05-25T07:53:55;82656.16;;;-144.30;36.28
7180;BME280;3631;42.152;24.756;2023-05-25T07:56:23;82610.47;;;-144.30;36.41
7180;BME280;3631;42.152;24.756;2023-05-25T07:58:50;82523.06;;;-144.30;36.11
7180;BME280;3631;42.152;24.756;2023-05-25T08:01:17;82473.41;;;-144.30;35.62
7180;BME280;3631;42.152;24.756;2023-05-25T08:03:44;82527.03;;;-144.30;35.54
7180;BME280;3631;42.152;24.756;2023-05-25T08:06:11;82594.56;;;-144.30;35.99
7180;BME280;3631;42.152;24.756;2023-05-25T08:08:39;82586.63;;;-144.30;36.04
7180;BME280;3631;42.152;24.756;2023-05-25T08:11:09;82606.50;;;-144.30;36.03
7180;BME280;3631;42.152;24.756;2023-05-25T08:13:36;82769.38;;;-144.30;36.93
7180;BME280;3631;42.152;24.756;2023-05-25T08:16:03;82882.59;;;-144.30;37.81
7180;BME280;3631;42.152;24.756;2023-05-25T08:18:30;83005.78;;;-144.30;39.07
7180;BME280;3631;42.152;24.756;2023-05-25T08:20:57;83063.38;;;-144.30;39.92
7180;BME280;3631;42.152;24.756;2023-05-25T08:23:24;83122.97;;;-144.30;40.07
7180;BME280;3631;42.152;24.756;2023-05-25T08:25:52;83121.00;;;-144.30;40.48
7180;BME280;3631;42.152;24.756;2023-05-25T08:28:19;83117.03;;;-144.30;40.60
7180;BME280;3631;42.152;24.756;2023-05-25T08:30:46;83198.47;;;-144.30;41.22
7180;BME280;3631;42.152;24.756;2023-05-25T08:33:13;83309.72;;;-144.30;41.80
7180;BME280;3631;42.152;24.756;2023-05-25T08:35:40;83254.09;;;-144.30;41.96
7180;BME280;3631;42.152;24.756;2023-05-25T08:38:07;83299.78;;;-144.30;42.33
7180;BME280;3631;42.152;24.756;2023-05-25T08:40:35;83297.81;;;-144.30;42.10
7180;BME280;3631;42.152;24.756;2023-05-25T08:43:04;83321.66;;;-144.30;41.75
7180;BME280;3631;42.152;24.756;2023-05-25T08:45:31;83208.41;;;-144.30;41.75
7180;BME280;3631;42.152;24.756;2023-05-25T08:47:58;83113.03;;;-144.30;40.70
7180;BME280;3631;42.152;24.756;2023-05-25T08:50:27;83041.53;;;-144.30;39.79
7180;BME280;3631;42.152;24.756;2023-05-25T08:52:56;83035.56;;;-144.30;39.27
7180;BME280;3631;42.152;24.756;2023-05-25T08:55:28;83007.75;;;-144.30;38.34
7180;BME280;3631;42.152;24.756;2023-05-25T08:58:04;82970.00;;;-144.30;38.61
7180;BME280;3631;42.152;24.756;2023-05-25T09:00:34;82916.38;;;-144.30;38.53
7180;BME280;3631;42.152;24.756;2023-05-25T09:03:06;82886.56;;;-144.30;37.86
7180;BME280;3631;42.152;24.756;2023-05-25T09:05:36;82906.44;;;-144.30;37.50
7180;BME280;3631;42.152;24.756;2023-05-25T09:08:04;82821.03;;;-144.30;37.55
7180;BME280;3631;42.152;24.756;2023-05-25T09:10:33;82775.34;;;-144.30;36.83
7180;BME280;3631;42.152;24.756;2023-05-25T09:13:02;82769.38;;;-144.30;36.02
7180;BME280;3631;42.152;24.756;2023-05-25T09:15:30;82769.38;;;-144.30;35.50
7180;BME280;3631;42.152;24.756;2023-05-25T09:17:57;82789.25;;;-144.30;35.70
7180;BME280;3631;42.152;24.756;2023-05-25T09:20:24;82713.75;;;-144.30;35.54
7180;BME280;3631;42.152;24.756;2023-05-25T09:22:56;82735.59;;;-144.30;35.66
7180;BME280;3631;42.152;24.756;2023-05-25T09:25:25;82652.19;;;-144.30;35.57
7180;BME280;3631;42.152;24.756;2023-05-25T09:27:52;82662.09;;;-144.30;35.58
7180;BME280;3631;42.152;24.756;2023-05-25T09:30:22;82558.81;;;-144.30;33.97
7180;BME280;3631;42.152;24.756;2023-05-25T09:32:49;82316.50;;;-144.30;34.06
7180;BME280;3631;42.152;24.756;2023-05-25T09:35:16;82461.50;;;-144.30;32.64
7180;BME280;3631;42.152;24.756;2023-05-25T09:37:43;82429.72;;;-144.30;32.22
7180;BME280;3631;42.152;24.756;2023-05-25T09:40:12;82316.50;;;-144.30;31.88
7180;BME280;3631;42.152;24.756;2023-05-25T09:42:39;82499.22;;;-144.30;32.13
7180;BME280;3631;42.152;24.756;2023-05-25T09:45:07;82517.09;;;-144.30;32.15
7180;BME280;3631;42.152;24.756;2023-05-25T09:47:36;82529.03;;;-144.30;31.92
7180;BME280;3631;42.152;24.756;2023-05-25T09:50:04;82527.03;;;-144.30;31.95
7180;BME280;3631;42.152;24.756;2023-05-25T09:52:31;82517.09;;;-144.30;30.88
7180;BME280;3631;42.152;24.756;2023-05-25T09:54:58;82459.50;;;-144.30;31.59
7180;BME280;3631;42.152;24.756;2023-05-25T09:57:26;82433.69;;;-144.30;31.23
7180;BME280;3631;42.152;24.756;2023-05-25T09:59:53;82344.31;;;-144.30;31.41
7180;BME280;3631;42.152;24.756;2023-05-25T10:02:20;82340.34;;;-144.30;31.93
7180;BME280;3631;42.152;24.756;2023-05-25T10:04:49;82495.25;;;-144.30;31.68
7180;BME280;3631;42.152;24.756;2023-05-25T10:07:16;82562.78;;;-144.30;32.28
7180;BME280;3631;42.152;24.756;2023-05-25T10:09:45;82614.44;;;-144.30;32.09
7180;BME280;3631;42.152;24.756;2023-05-25T10:12:16;82612.44;;;-144.30;32.41
7180;BME280;3631;42.152;24.756;2023-05-25T10:14:45;82640.25;;;-144.30;32.39
7180;BME280;3631;42.152;24.756;2023-05-25T10:17:22;82753.50;;;-144.30;32.56
7180;BME280;3631;42.152;24.756;2023-05-25T10:19:58;82950.16;;;-144.30;34.30
7180;BME280;3631;42.152;24.756;2023-05-25T10:22:29;82993.84;;;-144.30;35.39
7180;BME280;3631;42.152;24.756;2023-05-25T10:25:04;83047.50;;;-144.30;35.76
7180;BME280;3631;42.152;24.756;2023-05-25T10:27:36;83124.97;;;-144.30;36.22
7180;BME280;3631;42.152;24.756;2023-05-25T10:30:05;83128.94;;;-144.30;35.97
7180;BME280;3631;42.152;24.756;2023-05-25T10:32:35;83117.03;;;-144.30;36.00
7180;BME280;3631;42.152;24.756;2023-05-25T10:35:04;83162.72;;;-144.30;35.80
7180;BME280;3631;42.152;24.756;2023-05-25T10:37:32;83206.41;;;-144.30;36.26
7180;BME280;3631;42.152;24.756;2023-05-25T10:40:00;83246.16;;;-144.30;36.12
7180;BME280;3631;42.152;24.756;2023-05-25T10:42:28;83283.91;;;-144.30;35.78
7180;BME280;3631;42.152;24.756;2023-05-25T10:44:56;83333.56;;;-144.30;36.21
7180;BME280;3631;42.152;24.756;2023-05-25T10:47:23;83341.50;;;-144.30;36.35
7180;BME280;3631;42.152;24.756;2023-05-25T10:49:52;83369.34;;;-144.30;36.90
7180;BME280;3631;42.152;24.756;2023-05-25T10:52:21;83464.69;;;-144.30;37.46
7180;BME280;3631;42.152;24.756;2023-05-25T10:54:54;83528.28;;;-144.30;38.18
7180;BME280;3631;42.152;24.756;2023-05-25T10:57:23;83562.06;;;-144.30;38.08
7180;BME280;3631;42.152;24.756;2023-05-25T10:59:51;83625.63;;;-144.30;39.05
7180;BME280;3631;42.152;24.756;2023-05-25T11:02:20;83647.50;;;-144.30;39.47
7180;BME280;3631;42.152;24.756;2023-05-25T11:04:49;83707.09;;;-144.30;40.14
7180;BME280;3631;42.152;24.756;2023-05-25T11:07:16;83713.06;;;-144.30;42.22
7180;BME280;3631;42.152;24.756;2023-05-25T11:09:56;83762.72;;;-144.30;43.65
7180;BME280;3631;42.152;24.756;2023-05-25T11:12:24;83830.28;;;-144.30;45.35
7180;BME280;3631;42.152;24.756;2023-05-25T11:15:11;83804.47;;;-144.30;46.07
7180;BME280;3631;42.152;24.756;2023-05-25T11:17:57;83838.25;;;-144.30;46.36
7180;BME280;3631;42.152;24.756;2023-05-25T11:20:27;83870.03;;;-144.30;46.28
7180;BME280;3631;42.152;24.756;2023-05-25T11:22:56;83933.63;;;-144.30;46.75
7180;BME280;3631;42.152;24.756;2023-05-25T11:25:38;83881.97;;;-144.30;46.68
7180;BME280;3631;42.152;24.756;2023-05-25T11:28:07;83864.06;;;-144.30;46.55
7180;BME280;3631;42.152;24.756;2023-05-25T11:30:37;83885.94;;;-144.30;47.91
7180;BME280;3631;42.152;24.756;2023-05-25T11:33:04;83889.91;;;-144.30;50.31
7180;BME280;3631;42.152;24.756;2023-05-25T11:35:32;83963.44;;;-144.30;51.62
7180;BME280;3631;42.152;24.756;2023-05-25T11:38:04;83925.66;;;-144.30;53.91
7180;BME280;3631;42.152;24.756;2023-05-25T11:40:31;84015.09;;;-144.30;55.67
7180;BME280;3631;42.152;24.756;2023-05-25T11:43:01;83969.38;;;-144.30;55.62
7180;BME280;3631;42.152;24.756;2023-05-25T11:45:29;83973.38;;;-144.30;54.77
7180;BME280;3631;42.152;24.756;2023-05-25T11:47:56;84017.06;;;-144.30;54.39
7180;BME280;3631;42.152;24.756;2023-05-25T11:50:23;83965.41;;;-144.30;54.02
7180;BME280;3631;42.152;24.756;2023-05-25T11:52:50;83945.53;;;-144.30;53.40
7180;BME280;3631;42.152;24.756;2023-05-25T11:55:18;83943.56;;;-144.30;52.65
7180;BME280;3631;42.152;24.756;2023-05-25T11:57:45;83917.72;;;-144.30;50.99
7180;BME280;3631;42.152;24.756;2023-05-25T12:00:23;83913.75;;;-144.30;50.73
7180;BME280;3631;42.152;24.756;2023-05-25T12:02:50;83895.88;;;-144.30;50.04
7180;BME280;3631;42.152;24.756;2023-05-25T12:05:17;83872.03;;;-144.30;49.69
7180;BME280;3631;42.152;24.756;2023-05-25T12:07:44;83881.97;;;-144.30;49.12
7180;BME280;3631;42.152;24.756;2023-05-25T12:10:13;83818.38;;;-144.30;48.32
7180;BME280;3631;42.152;24.756;2023-05-25T12:12:41;83776.66;;;-144.30;44.66
7180;BME280;3631;42.152;24.756;2023-05-25T12:15:09;83774.66;;;-144.30;43.99
7180;BME280;3631;42.152;24.756;2023-05-25T12:17:39;83806.44;;;-144.30;42.85
7180;BME280;3631;42.152;24.756;2023-05-25T12:20:08;83973.38;;;-144.30;42.07
7180;BME280;3631;42.152;24.756;2023-05-25T12:22:36;83736.91;;;-144.30;41.23
7180;BME280;3631;42.152;24.756;2023-05-25T12:25:05;83786.56;;;-144.30;40.98
7180;BME280;3631;42.152;24.756;2023-05-25T12:27:32;83635.56;;;-144.30;40.90
7180;BME280;3631;42.152;24.756;2023-05-25T12:29:59;83687.22;;;-144.30;40.72
7180;BME280;3631;42.152;24.756;2023-05-25T12:32:26;83663.38;;;-144.30;40.66
7180;BME280;3631;42.152;24.756;2023-05-25T12:35:02;83544.16;;;-144.30;39.68
7180;BME280;3631;42.152;24.756;2023-05-25T12:37:30;83560.06;;;-144.30;39.55
7180;BME280;3631;42.152;24.756;2023-05-25T12:39:57;83456.75;;;-144.30;39.38
7180;BME280;3631;42.152;24.756;2023-05-25T12:42:24;83460.72;;;-144.30;38.61
7180;BME280;3631;42.152;24.756;2023-05-25T12:44:54;83458.72;;;-144.30;39.19
7180;BME280;3631;42.152;24.756;2023-05-25T12:47:23;83420.97;;;-144.30;38.71
7180;BME280;3631;42.152;24.756;2023-05-25T12:50:08;83422.97;;;-144.30;38.39
7180;BME280;3631;42.152;24.756;2023-05-25T12:52:37;83420.97;;;-144.30;38.09
7180;BME280;3631;42.152;24.756;2023-05-25T12:55:22;83476.63;;;-144.30;38.82